sensor_id;sensor_type;location;lat;lon;timestamp;pressure;altitude;pressure_sealevel;temperature;humidity
38718;BME280;24468;52.128;9.278;2022-07-29T00:02:21;100888.31;;;19.96;56.78
38718;BME280;24468;52.128;9.278;2022-07-29T00:04:47;100886.34;;;19.98;56.97
38718;BME280;24468;52.128;9.278;2022-07-29T00:07:12;100886.38;;;20.20;57.87
38718;BME280;24468;52.128;9.278;2022-07-29T00:09:38;100881.63;;;20.00;57.42
38718;BME280;24468;52.128;9.278;2022-07-29T00:12:04;100875.53;;;19.96;57.77
38718;BME280;24468;52.128;9.278;2022-07-29T00:14:30;100877.78;;;20.03;57.92
38718;BME280;24468;52.128;9.278;2022-07-29T00:16:55;100877.66;;;20.15;57.75
38718;BME280;24468;52.128;9.278;2022-07-29T00:19:21;100875.44;;;20.20;57.61
38718;BME280;24468;52.128;9.278;2022-07-29T00:21:47;100875.06;;;20.14;57.78
38718;BME280;24468;52.128;9.278;2022-07-29T00:24:12;100874.91;;;20.15;57.88
38718;BME280;24468;52.128;9.278;2022-07-29T00:26:38;100868.81;;;20.01;57.67
38718;BME280;24468;52.128;9.278;2022-07-29T00:29:04;100859.81;;;19.98;58.69
38718;BME280;24468;52.128;9.278;2022-07-29T00:31:30;100866.44;;;20.07;58.37
38718;BME280;24468;52.128;9.278;2022-07-29T00:33:55;100861.13;;;20.17;57.70
38718;BME280;24468;52.128;9.278;2022-07-29T00:36:22;100857.34;;;19.95;58.46
38718;BME280;24468;52.128;9.278;2022-07-29T00:38:51;100853.38;;;19.99;59.73
38718;BME280;24468;52.128;9.278;2022-07-29T00:41:18;100854.09;;;20.02;59.10
38718;BME280;24468;52.128;9.278;2022-07-29T00:43:44;100851.03;;;19.71;59.21
38718;BME280;24468;52.128;9.278;2022-07-29T00:46:10;100857.97;;;19.64;60.83
38718;BME280;24468;52.128;9.278;2022-07-29T00:48:36;100853.53;;;19.74;61.43
38718;BME280;24468;52.128;9.278;2022-07-29T00:51:03;100848.81;;;19.76;61.27
38718;BME280;24468;52.128;9.278;2022-07-29T00:53:31;100851.72;;;19.86;60.04
38718;BME280;24468;52.128;9.278;2022-07-29T00:55:58;100847.13;;;19.86;60.06
38718;BME280;24468;52.128;9.278;2022-07-29T00:58:24;100840.78;;;19.62;60.80
38718;BME280;24468;52.128;9.278;2022-07-29T01:00:52;100843.72;;;19.83;61.78
38718;BME280;24468;52.128;9.278;2022-07-29T01:03:18;100842.47;;;19.51;63.40
38718;BME280;24468;52.128;9.278;2022-07-29T01:05:45;100843.94;;;19.44;65.17
38718;BME280;24468;52.128;9.278;2022-07-29T01:08:12;100842.91;;;19.34;66.19
38718;BME280;24468;52.128;9.278;2022-07-29T01:10:40;100833.50;;;19.49;64.35
38718;BME280;24468;52.128;9.278;2022-07-29T01:13:07;100830.72;;;19.38;65.79
38718;BME280;24468;52.128;9.278;2022-07-29T01:15:50;100825.84;;;19.30;67.21
38718;BME280;24468;52.128;9.278;2022-07-29T01:18:32;100829.53;;;19.18;67.83
38718;BME280;24468;52.128;9.278;2022-07-29T01:27:10;100812.63;;;19.00;69.62
38718;BME280;24468;52.128;9.278;2022-07-29T01:29:49;100805.19;;;19.02;70.42
38718;BME280;24468;52.128;9.278;2022-07-29T01:32:22;100811.38;;;18.93;71.75
38718;BME280;24468;52.128;9.278;2022-07-29T01:35:05;100794.03;;;18.69;75.10
38718;BME280;24468;52.128;9.278;2022-07-29T01:37:55;100796.22;;;18.63;75.29
38718;BME280;24468;52.128;9.278;2022-07-29T01:42:58;100808.72;;;18.42;77.21
38718;BME280;24468;52.128;9.278;2022-07-29T01:45:40;100823.84;;;18.35;79.12
38718;BME280;24468;52.128;9.278;2022-07-29T01:48:19;100816.00;;;18.80;75.96
38718;BME280;24468;52.128;9.278;2022-07-29T01:50:52;100817.66;;;19.06;73.77
38718;BME280;24468;52.128;9.278;2022-07-29T01:53:29;100804.91;;;19.18;70.65
38718;BME280;24468;52.128;9.278;2022-07-29T01:55:57;100803.75;;;19.33;69.62
38718;BME280;24468;52.128;9.278;2022-07-29T01:58:27;100801.06;;;19.21;69.59
38718;BME280;24468;52.128;9.278;2022-07-29T02:00:53;100804.47;;;19.36;69.92
38718;BME280;24468;52.128;9.278;2022-07-29T02:03:21;100792.06;;;19.43;67.59
38718;BME280;24468;52.128;9.278;2022-07-29T02:05:49;100782.06;;;19.30;68.41
38718;BME280;24468;52.128;9.278;2022-07-29T02:08:16;100781.16;;;19.19;68.66
38718;BME280;24468;52.128;9.278;2022-07-29T02:10:47;100798.84;;;19.26;68.56
38718;BME280;24468;52.128;9.278;2022-07-29T02:13:15;100791.78;;;19.35;69.46
38718;BME280;24468;52.128;9.278;2022-07-29T02:15:42;100782.59;;;19.36;67.57
38718;BME280;24468;52.128;9.278;2022-07-29T02:18:16;100784.78;;;18.95;70.08
38718;BME280;24468;52.128;9.278;2022-07-29T02:20:47;100792.50;;;18.77;74.85
38718;BME280;24468;52.128;9.278;2022-07-29T02:23:15;100789.44;;;18.82;75.22
38718;BME280;24468;52.128;9.278;2022-07-29T02:25:43;100792.00;;;18.59;77.55
38718;BME280;24468;52.128;9.278;2022-07-29T02:28:09;100781.75;;;18.87;74.73
38718;BME280;24468;52.128;9.278;2022-07-29T02:30:39;100784.31;;;18.64;75.67
38718;BME280;24468;52.128;9.278;2022-07-29T02:33:06;100785.63;;;18.59;76.80
38718;BME280;24468;52.128;9.278;2022-07-29T02:35:33;100781.50;;;18.53;77.16
38718;BME280;24468;52.128;9.278;2022-07-29T02:37:59;100777.72;;;18.43;77.60
38718;BME280;24468;52.128;9.278;2022-07-29T02:40:44;100771.41;;;18.66;75.58
38718;BME280;24468;52.128;9.278;2022-07-29T02:43:10;100770.88;;;18.61;75.82
38718;BME280;24468;52.128;9.278;2022-07-29T02:45:36;100772.75;;;18.48;77.65
38718;BME280;24468;52.128;9.278;2022-07-29T02:48:10;100768.44;;;18.70;78.94
38718;BME280;24468;52.128;9.278;2022-07-29T02:50:46;100767.16;;;18.62;77.61
38718;BME280;24468;52.128;9.278;2022-07-29T02:53:20;100766.28;;;18.62;75.47
38718;BME280;24468;52.128;9.278;2022-07-29T02:55:57;100771.63;;;18.27;78.45
38718;BME280;24468;52.128;9.278;2022-07-29T02:58:49;100767.41;;;18.59;77.26
38718;BME280;24468;52.128;9.278;2022-07-29T03:01:23;100760.00;;;18.73;76.64
38718;BME280;24468;52.128;9.278;2022-07-29T03:03:52;100771.41;;;18.30;80.64
38718;BME280;24468;52.128;9.278;2022-07-29T03:06:20;100764.47;;;18.37;82.16
38718;BME280;24468;52.128;9.278;2022-07-29T03:08:47;100769.63;;;18.29;78.81
38718;BME280;24468;52.128;9.278;2022-07-29T03:11:13;100766.66;;;18.44;77.69
38718;BME280;24468;52.128;9.278;2022-07-29T03:13:40;100767.91;;;18.15;80.89
38718;BME280;24468;52.128;9.278;2022-07-29T03:16:07;100757.13;;;18.50;78.03
38718;BME280;24468;52.128;9.278;2022-07-29T03:18:36;100759.47;;;18.67;75.60
38718;BME280;24468;52.128;9.278;2022-07-29T03:21:03;100765.78;;;18.44;76.90
38718;BME280;24468;52.128;9.278;2022-07-29T03:23:29;100770.34;;;18.56;77.89
38718;BME280;24468;52.128;9.278;2022-07-29T03:25:55;100771.50;;;18.78;75.73
38718;BME280;24468;52.128;9.278;2022-07-29T03:28:22;100775.81;;;18.93;74.06
38718;BME280;24468;52.128;9.278;2022-07-29T03:30:48;100768.19;;;18.73;74.44
38718;BME280;24468;52.128;9.278;2022-07-29T03:33:14;100755.34;;;18.62;74.91
38718;BME280;24468;52.128;9.278;2022-07-29T03:35:40;100755.47;;;18.60;75.79
38718;BME280;24468;52.128;9.278;2022-07-29T03:38:05;100760.41;;;18.55;76.17
38718;BME280;24468;52.128;9.278;2022-07-29T03:40:39;100754.97;;;18.42;75.98
38718;BME280;24468;52.128;9.278;2022-07-29T03:43:07;100750.66;;;18.27;79.76
38718;BME280;24468;52.128;9.278;2022-07-29T03:45:34;100751.97;;;18.21;82.20
38718;BME280;24468;52.128;9.278;2022-07-29T03:48:13;100742.09;;;18.32;79.12
38718;BME280;24468;52.128;9.278;2022-07-29T03:50:40;100745.19;;;18.27;77.81
38718;BME280;24468;52.128;9.278;2022-07-29T03:53:06;100747.38;;;18.09;80.69
38718;BME280;24468;52.128;9.278;2022-07-29T03:55:37;100754.47;;;17.48;90.21
38718;BME280;24468;52.128;9.278;2022-07-29T03:58:06;100757.19;;;17.73;89.80
38718;BME280;24468;52.128;9.278;2022-07-29T04:00:34;100754.69;;;17.70;88.28
38718;BME280;24468;52.128;9.278;2022-07-29T04:03:00;100758.16;;;18.23;81.77
38718;BME280;24468;52.128;9.278;2022-07-29T04:05:26;100760.91;;;18.23;83.02
38718;BME280;24468;52.128;9.278;2022-07-29T04:07:52;100764.38;;;18.38;81.32
38718;BME280;24468;52.128;9.278;2022-07-29T04:10:18;100757.66;;;18.55;79.39
38718;BME280;24468;52.128;9.278;2022-07-29T04:12:49;100758.38;;;18.83;75.02
38718;BME280;24468;52.128;9.278;2022-07-29T04:15:14;100756.00;;;18.65;76.02
38718;BME280;24468;52.128;9.278;2022-07-29T04:17:40;100759.81;;;19.00;73.94
38718;BME280;24468;52.128;9.278;2022-07-29T04:20:06;100764.13;;;18.91;74.24
38718;BME280;24468;52.128;9.278;2022-07-29T04:22:32;100766.34;;;19.10;72.47
38718;BME280;24468;52.128;9.278;2022-07-29T04:24:57;100762.88;;;19.19;71.86
38718;BME280;24468;52.128;9.278;2022-07-29T04:27:23;100762.53;;;19.24;71.75
38718;BME280;24468;52.128;9.278;2022-07-29T04:29:49;100769.97;;;19.22;70.25
38718;BME280;24468;52.128;9.278;2022-07-29T04:32:14;100772.13;;;19.29;69.82
38718;BME280;24468;52.128;9.278;2022-07-29T04:34:40;100773.38;;;19.01;73.46
38718;BME280;24468;52.128;9.278;2022-07-29T04:37:06;100767.41;;;18.59;80.40
38718;BME280;24468;52.128;9.278;2022-07-29T04:39:31;100761.28;;;18.56;82.32
38718;BME280;24468;52.128;9.278;2022-07-29T04:41:57;100752.19;;;18.18;86.08
38718;BME280;24468;52.128;9.278;2022-07-29T04:44:22;100748.34;;;17.31;89.44
38718;BME280;24468;52.128;9.278;2022-07-29T04:46:48;100740.59;;;17.38;91.34
38718;BME280;24468;52.128;9.278;2022-07-29T04:49:13;100746.97;;;17.64;88.46
38718;BME280;24468;52.128;9.278;2022-07-29T04:51:39;100748.06;;;17.74;88.76
38718;BME280;24468;52.128;9.278;2022-07-29T04:54:05;100755.25;;;18.01;86.65
38718;BME280;24468;52.128;9.278;2022-07-29T04:56:31;100763.53;;;18.25;84.05
38718;BME280;24468;52.128;9.278;2022-07-29T04:58:57;100762.03;;;18.21;86.53
38718;BME280;24468;52.128;9.278;2022-07-29T05:01:22;100762.13;;;18.19;87.29
38718;BME280;24468;52.128;9.278;2022-07-29T05:03:48;100758.94;;;18.75;83.82
38718;BME280;24468;52.128;9.278;2022-07-29T05:06:13;100763.94;;;19.05;80.35
38718;BME280;24468;52.128;9.278;2022-07-29T05:08:39;100761.75;;;18.37;83.58
38718;BME280;24468;52.128;9.278;2022-07-29T05:11:05;100771.63;;;18.63;82.46
38718;BME280;24468;52.128;9.278;2022-07-29T05:13:30;100765.31;;;17.88;87.04
38718;BME280;24468;52.128;9.278;2022-07-29T05:15:56;100763.59;;;18.49;85.21
38718;BME280;24468;52.128;9.278;2022-07-29T05:18:24;100768.44;;;18.70;84.10
38718;BME280;24468;52.128;9.278;2022-07-29T05:20:50;100765.84;;;18.92;80.98
38718;BME280;24468;52.128;9.278;2022-07-29T05:23:15;100759.41;;;18.93;81.61
38718;BME280;24468;52.128;9.278;2022-07-29T05:25:41;100758.38;;;18.70;81.76
38718;BME280;24468;52.128;9.278;2022-07-29T05:28:07;100753.00;;;19.05;79.54
38718;BME280;24468;52.128;9.278;2022-07-29T05:30:32;100753.09;;;18.93;79.74
38718;BME280;24468;52.128;9.278;2022-07-29T05:32:58;100740.31;;;19.28;74.80
38718;BME280;24468;52.128;9.278;2022-07-29T05:35:23;100747.00;;;19.24;70.62
38718;BME280;24468;52.128;9.278;2022-07-29T05:37:49;100746.47;;;19.54;70.32
38718;BME280;24468;52.128;9.278;2022-07-29T05:40:14;100751.63;;;19.82;68.75
38718;BME280;24468;52.128;9.278;2022-07-29T05:42:40;100746.53;;;19.77;67.63
38718;BME280;24468;52.128;9.278;2022-07-29T05:45:06;100738.47;;;19.87;67.19
38718;BME280;24468;52.128;9.278;2022-07-29T05:47:31;100746.81;;;19.96;67.20
38718;BME280;24468;52.128;9.278;2022-07-29T05:49:57;100748.69;;;20.18;66.12
38718;BME280;24468;52.128;9.278;2022-07-29T05:52:23;100751.78;;;20.14;67.28
38718;BME280;24468;52.128;9.278;2022-07-29T05:54:49;100748.44;;;20.21;66.96
38718;BME280;24468;52.128;9.278;2022-07-29T05:57:18;100747.81;;;20.40;64.95
38718;BME280;24468;52.128;9.278;2022-07-29T05:59:45;100750.28;;;20.43;65.87
38718;BME280;24468;52.128;9.278;2022-07-29T06:02:13;100746.41;;;20.46;65.29
38718;BME280;24468;52.128;9.278;2022-07-29T06:04:39;100740.16;;;20.67;64.57
38718;BME280;24468;52.128;9.278;2022-07-29T06:07:05;100739.41;;;20.64;63.11
38718;BME280;24468;52.128;9.278;2022-07-29T06:09:31;100740.53;;;20.62;62.76
38718;BME280;24468;52.128;9.278;2022-07-29T06:11:56;100747.28;;;20.47;61.83
38718;BME280;24468;52.128;9.278;2022-07-29T06:14:24;100746.28;;;20.48;62.49
38718;BME280;24468;52.128;9.278;2022-07-29T06:16:49;100757.25;;;20.59;61.55
38718;BME280;24468;52.128;9.278;2022-07-29T06:19:15;100751.38;;;20.75;62.00
38718;BME280;24468;52.128;9.278;2022-07-29T06:21:45;100760.19;;;20.78;61.43
38718;BME280;24468;52.128;9.278;2022-07-29T06:24:12;100759.06;;;20.81;61.44
38718;BME280;24468;52.128;9.278;2022-07-29T06:26:39;100762.91;;;21.01;61.15
38718;BME280;24468;52.128;9.278;2022-07-29T06:29:06;100761.63;;;21.05;61.03
38718;BME280;24468;52.128;9.278;2022-07-29T06:31:32;100766.72;;;21.09;60.56
38718;BME280;24468;52.128;9.278;2022-07-29T06:33:57;100758.34;;;21.11;60.78
38718;BME280;24468;52.128;9.278;2022-07-29T06:36:23;100758.59;;;21.08;60.54
38718;BME280;24468;52.128;9.278;2022-07-29T06:38:48;100753.66;;;21.02;61.87
38718;BME280;24468;52.128;9.278;2022-07-29T06:41:14;100750.44;;;20.97;61.73
38718;BME280;24468;52.128;9.278;2022-07-29T06:43:43;100749.88;;;20.48;63.15
38718;BME280;24468;52.128;9.278;2022-07-29T06:46:14;100735.53;;;20.78;61.52
38718;BME280;24468;52.128;9.278;2022-07-29T06:48:41;100743.88;;;20.77;61.75
38718;BME280;24468;52.128;9.278;2022-07-29T06:51:09;100743.50;;;20.70;61.91
38718;BME280;24468;52.128;9.278;2022-07-29T06:53:35;100741.41;;;20.74;61.70
38718;BME280;24468;52.128;9.278;2022-07-29T06:56:02;100739.31;;;20.66;60.89
38718;BME280;24468;52.128;9.278;2022-07-29T06:58:29;100747.28;;;20.69;61.06
38718;BME280;24468;52.128;9.278;2022-07-29T07:00:56;100755.19;;;20.83;60.60
38718;BME280;24468;52.128;9.278;2022-07-29T07:03:21;100750.75;;;21.03;60.42
38718;BME280;24468;52.128;9.278;2022-07-29T07:05:48;100757.22;;;21.14;60.09
38718;BME280;24468;52.128;9.278;2022-07-29T07:08:14;100756.88;;;21.07;61.26
38718;BME280;24468;52.128;9.278;2022-07-29T07:10:42;100761.94;;;21.12;59.75
38718;BME280;24468;52.128;9.278;2022-07-29T07:13:08;100754.88;;;21.09;59.28
38718;BME280;24468;52.128;9.278;2022-07-29T07:15:35;100749.28;;;21.31;60.25
38718;BME280;24468;52.128;9.278;2022-07-29T07:18:02;100760.25;;;21.31;60.44
38718;BME280;24468;52.128;9.278;2022-07-29T07:20:27;100753.03;;;21.30;60.29
38718;BME280;24468;52.128;9.278;2022-07-29T07:22:53;100758.25;;;21.45;59.83
38718;BME280;24468;52.128;9.278;2022-07-29T07:25:18;100753.13;;;21.40;59.29
38718;BME280;24468;52.128;9.278;2022-07-29T07:27:44;100760.88;;;21.35;58.93
38718;BME280;24468;52.128;9.278;2022-07-29T07:30:10;100755.44;;;21.24;58.92
38718;BME280;24468;52.128;9.278;2022-07-29T07:32:36;100756.41;;;21.02;59.95
38718;BME280;24468;52.128;9.278;2022-07-29T07:35:04;100760.00;;;21.02;61.11
38718;BME280;24468;52.128;9.278;2022-07-29T07:37:30;100758.44;;;20.88;61.16
38718;BME280;24468;52.128;9.278;2022-07-29T07:39:56;100760.38;;;21.09;60.34
38718;BME280;24468;52.128;9.278;2022-07-29T07:42:23;100754.09;;;21.18;60.21
38718;BME280;24468;52.128;9.278;2022-07-29T07:44:48;100755.34;;;21.46;58.65
38718;BME280;24468;52.128;9.278;2022-07-29T07:47:15;100755.91;;;21.61;58.51
38718;BME280;24468;52.128;9.278;2022-07-29T07:49:46;100751.06;;;21.53;59.21
38718;BME280;24468;52.128;9.278;2022-07-29T07:52:11;100753.81;;;21.53;58.87
38718;BME280;24468;52.128;9.278;2022-07-29T07:54:37;100752.13;;;21.62;58.87
38718;BME280;24468;52.128;9.278;2022-07-29T07:57:03;100752.13;;;21.62;58.70
38718;BME280;24468;52.128;9.278;2022-07-29T07:59:28;100747.41;;;21.64;58.38
38718;BME280;24468;52.128;9.278;2022-07-29T08:01:54;100751.13;;;21.63;58.80
38718;BME280;24468;52.128;9.278;2022-07-29T08:04:20;100742.38;;;21.48;58.75
38718;BME280;24468;52.128;9.278;2022-07-29T08:06:45;100746.91;;;21.59;58.00
38718;BME280;24468;52.128;9.278;2022-07-29T08:09:11;100744.91;;;21.61;58.25
38718;BME280;24468;52.128;9.278;2022-07-29T08:11:36;100739.16;;;21.64;58.36
38718;BME280;24468;52.128;9.278;2022-07-29T08:14:02;100739.88;;;21.45;59.93
38718;BME280;24468;52.128;9.278;2022-07-29T08:16:28;100744.72;;;21.53;60.73
38718;BME280;24468;52.128;9.278;2022-07-29T08:18:53;100753.41;;;21.79;58.96
38718;BME280;24468;52.128;9.278;2022-07-29T08:21:23;100755.00;;;21.82;58.87
38718;BME280;24468;52.128;9.278;2022-07-29T08:23:50;100759.66;;;21.91;59.16
38718;BME280;24468;52.128;9.278;2022-07-29T08:26:21;100762.50;;;22.10;57.17
38718;BME280;24468;52.128;9.278;2022-07-29T08:28:48;100770.50;;;22.13;56.35
38718;BME280;24468;52.128;9.278;2022-07-29T08:31:16;100765.59;;;22.38;55.63
38718;BME280;24468;52.128;9.278;2022-07-29T08:33:43;100772.63;;;22.00;55.55
38718;BME280;24468;52.128;9.278;2022-07-29T08:36:08;100776.47;;;22.18;56.31
38718;BME280;24468;52.128;9.278;2022-07-29T08:38:34;100761.00;;;21.96;57.46
38718;BME280;24468;52.128;9.278;2022-07-29T08:41:01;100755.38;;;21.98;57.46
38718;BME280;24468;52.128;9.278;2022-07-29T08:43:28;100764.69;;;22.28;56.71
38718;BME280;24468;52.128;9.278;2022-07-29T08:45:54;100768.75;;;22.43;55.36
38718;BME280;24468;52.128;9.278;2022-07-29T08:48:23;100772.59;;;22.61;54.57
38718;BME280;24468;52.128;9.278;2022-07-29T08:50:55;100763.59;;;22.59;54.87
38718;BME280;24468;52.128;9.278;2022-07-29T08:53:21;100765.13;;;22.83;54.40
38718;BME280;24468;52.128;9.278;2022-07-29T08:55:49;100774.13;;;22.85;54.08
38718;BME280;24468;52.128;9.278;2022-07-29T08:58:16;100765.31;;;23.01;54.06
38718;BME280;24468;52.128;9.278;2022-07-29T09:00:50;100777.72;;;22.85;53.77
38718;BME280;24468;52.128;9.278;2022-07-29T09:03:19;100764.50;;;22.70;53.89
38718;BME280;24468;52.128;9.278;2022-07-29T09:05:46;100768.81;;;22.62;54.78
38718;BME280;24468;52.128;9.278;2022-07-29T09:08:17;100764.25;;;22.92;54.26
38718;BME280;24468;52.128;9.278;2022-07-29T09:10:44;100758.50;;;22.45;55.41
38718;BME280;24468;52.128;9.278;2022-07-29T09:13:09;100775.38;;;22.71;55.35
38718;BME280;24468;52.128;9.278;2022-07-29T09:15:35;100765.47;;;23.09;54.60
38718;BME280;24468;52.128;9.278;2022-07-29T09:18:01;100767.22;;;23.20;53.56
38718;BME280;24468;52.128;9.278;2022-07-29T09:20:27;100761.72;;;23.29;53.16
38718;BME280;24468;52.128;9.278;2022-07-29T09:23:13;100766.41;;;22.29;55.91
38718;BME280;24468;52.128;9.278;2022-07-29T09:25:40;100767.84;;;22.63;54.50
38718;BME280;24468;52.128;9.278;2022-07-29T09:28:15;100765.34;;;22.20;55.57
38718;BME280;24468;52.128;9.278;2022-07-29T09:30:52;100773.03;;;22.67;55.36
38718;BME280;24468;52.128;9.278;2022-07-29T09:33:18;100772.81;;;22.89;54.44
38718;BME280;24468;52.128;9.278;2022-07-29T09:35:43;100766.22;;;23.21;53.65
38718;BME280;24468;52.128;9.278;2022-07-29T09:38:13;100769.81;;;23.02;54.16
38718;BME280;24468;52.128;9.278;2022-07-29T09:40:39;100760.56;;;23.51;52.44
38718;BME280;24468;52.128;9.278;2022-07-29T09:43:13;100765.28;;;23.69;52.09
38718;BME280;24468;52.128;9.278;2022-07-29T09:45:39;100759.66;;;23.80;51.78
38718;BME280;24468;52.128;9.278;2022-07-29T09:48:23;100751.00;;;23.75;51.42
38718;BME280;24468;52.128;9.278;2022-07-29T09:50:49;100752.97;;;23.83;51.58
38718;BME280;24468;52.128;9.278;2022-07-29T09:53:37;100750.53;;;23.80;51.85
38718;BME280;24468;52.128;9.278;2022-07-29T09:56:06;100757.78;;;23.81;51.68
38718;BME280;24468;52.128;9.278;2022-07-29T09:58:32;100753.88;;;23.83;51.45
38718;BME280;24468;52.128;9.278;2022-07-29T10:00:59;100741.69;;;23.57;51.75
38718;BME280;24468;52.128;9.278;2022-07-29T10:03:25;100741.88;;;23.36;52.27
38718;BME280;24468;52.128;9.278;2022-07-29T10:06:09;100739.84;;;23.38;51.90
38718;BME280;24468;52.128;9.278;2022-07-29T10:08:35;100742.88;;;23.35;53.33
38718;BME280;24468;52.128;9.278;2022-07-29T10:11:16;100741.69;;;22.89;54.60
38718;BME280;24468;52.128;9.278;2022-07-29T10:13:44;100746.31;;;22.88;55.18
38718;BME280;24468;52.128;9.278;2022-07-29T10:16:11;100741.09;;;22.95;54.28
38718;BME280;24468;52.128;9.278;2022-07-29T10:18:38;100744.25;;;22.71;55.69
38718;BME280;24468;52.128;9.278;2022-07-29T10:21:04;100746.75;;;22.93;55.24
38718;BME280;24468;52.128;9.278;2022-07-29T10:23:30;100743.47;;;23.28;56.25
38718;BME280;24468;52.128;9.278;2022-07-29T10:25:57;100742.56;;;23.47;55.31
38718;BME280;24468;52.128;9.278;2022-07-29T10:28:23;100750.53;;;23.70;55.13
38718;BME280;24468;52.128;9.278;2022-07-29T10:30:51;100750.34;;;23.91;53.44
38718;BME280;24468;52.128;9.278;2022-07-29T10:40:11;100742.88;;;23.44;54.79
38718;BME280;24468;52.128;9.278;2022-07-29T10:43:09;100741.69;;;23.76;54.95
38718;BME280;24468;52.128;9.278;2022-07-29T10:45:40;100739.09;;;23.36;56.67
38718;BME280;24468;52.128;9.278;2022-07-29T10:48:06;100739.56;;;23.21;57.71
38718;BME280;24468;52.128;9.278;2022-07-29T10:51:04;100741.25;;;22.93;57.02
38718;BME280;24468;52.128;9.278;2022-07-29T10:53:52;100737.22;;;22.97;57.46
38718;BME280;24468;52.128;9.278;2022-07-29T10:56:32;100735.66;;;23.24;56.10
38718;BME280;24468;52.128;9.278;2022-07-29T11:01:43;100736.44;;;23.83;54.43
38718;BME280;24468;52.128;9.278;2022-07-29T11:04:09;100730.41;;;23.40;54.32
38718;BME280;24468;52.128;9.278;2022-07-29T11:09:29;100732.59;;;23.27;55.43
38718;BME280;24468;52.128;9.278;2022-07-29T11:11:56;100730.38;;;23.60;54.36
38718;BME280;24468;52.128;9.278;2022-07-29T11:17:20;100729.84;;;23.17;56.41
38718;BME280;24468;52.128;9.278;2022-07-29T11:19:45;100742.59;;;23.08;57.40
38718;BME280;24468;52.128;9.278;2022-07-29T11:22:14;100732.88;;;23.14;56.72
38718;BME280;24468;52.128;9.278;2022-07-29T11:25:17;100736.94;;;23.59;56.41
38718;BME280;24468;52.128;9.278;2022-07-29T11:27:44;100738.13;;;24.03;53.93
38718;BME280;24468;52.128;9.278;2022-07-29T11:30:10;100738.16;;;23.93;54.41
38718;BME280;24468;52.128;9.278;2022-07-29T11:32:42;100745.69;;;23.91;53.07
38718;BME280;24468;52.128;9.278;2022-07-29T11:37:37;100746.03;;;23.79;54.73
38718;BME280;24468;52.128;9.278;2022-07-29T11:48:14;100737.53;;;24.47;51.93
38718;BME280;24468;52.128;9.278;2022-07-29T11:50:31;100741.16;;;24.10;53.89
38718;BME280;24468;52.128;9.278;2022-07-29T11:52:58;100733.03;;;24.46;53.02
38718;BME280;24468;52.128;9.278;2022-07-29T11:55:24;100727.75;;;24.80;50.85
38718;BME280;24468;52.128;9.278;2022-07-29T11:57:59;100734.41;;;23.94;53.43
38718;BME280;24468;52.128;9.278;2022-07-29T12:00:33;100735.19;;;24.14;53.54
38718;BME280;24468;52.128;9.278;2022-07-29T12:03:02;100728.94;;;24.77;52.59
38718;BME280;24468;52.128;9.278;2022-07-29T12:05:43;100725.47;;;25.11;51.48
38718;BME280;24468;52.128;9.278;2022-07-29T12:08:16;100719.66;;;24.96;51.87
38718;BME280;24468;52.128;9.278;2022-07-29T12:10:45;100718.63;;;24.79;51.92
38718;BME280;24468;52.128;9.278;2022-07-29T12:13:13;100713.28;;;24.68;51.87
38718;BME280;24468;52.128;9.278;2022-07-29T12:15:39;100718.94;;;25.30;50.58
38718;BME280;24468;52.128;9.278;2022-07-29T12:18:17;100719.31;;;24.81;51.85
38718;BME280;24468;52.128;9.278;2022-07-29T12:20:44;100709.63;;;24.77;52.32
38718;BME280;24468;52.128;9.278;2022-07-29T12:23:10;100711.50;;;24.95;51.71
38718;BME280;24468;52.128;9.278;2022-07-29T12:25:41;100698.09;;;25.36;50.55
38718;BME280;24468;52.128;9.278;2022-07-29T12:28:12;100699.06;;;25.26;51.15
38718;BME280;24468;52.128;9.278;2022-07-29T12:30:48;100701.25;;;25.67;49.49
38718;BME280;24468;52.128;9.278;2022-07-29T12:35:52;100687.84;;;25.98;49.25
38718;BME280;24468;52.128;9.278;2022-07-29T12:38:19;100689.63;;;26.07;48.36
38718;BME280;24468;52.128;9.278;2022-07-29T12:40:46;100698.16;;;25.88;48.70
38718;BME280;24468;52.128;9.278;2022-07-29T12:43:21;100698.16;;;25.88;49.20
38718;BME280;24468;52.128;9.278;2022-07-29T12:45:52;100689.28;;;25.58;49.74
38718;BME280;24468;52.128;9.278;2022-07-29T12:48:41;100685.91;;;26.25;48.67
38718;BME280;24468;52.128;9.278;2022-07-29T12:51:08;100682.41;;;26.57;47.41
38718;BME280;24468;52.128;9.278;2022-07-29T12:53:36;100666.91;;;26.97;47.09
38718;BME280;24468;52.128;9.278;2022-07-29T12:56:03;100670.56;;;26.97;46.21
38718;BME280;24468;52.128;9.278;2022-07-29T13:01:19;100655.66;;;26.90;46.10
38718;BME280;24468;52.128;9.278;2022-07-29T13:03:58;100655.34;;;27.18;46.39
38718;BME280;24468;52.128;9.278;2022-07-29T13:06:45;100657.72;;;27.70;45.34
38718;BME280;24468;52.128;9.278;2022-07-29T13:09:18;100648.41;;;27.46;44.18
38718;BME280;24468;52.128;9.278;2022-07-29T13:14:40;100640.13;;;27.22;45.13
38718;BME280;24468;52.128;9.278;2022-07-29T13:19:52;100646.00;;;27.35;45.05
38718;BME280;24468;52.128;9.278;2022-07-29T13:22:22;100641.16;;;27.13;45.13
38718;BME280;24468;52.128;9.278;2022-07-29T13:24:53;100636.28;;;26.98;44.88
38718;BME280;24468;52.128;9.278;2022-07-29T13:27:25;100636.28;;;26.90;45.06
38718;BME280;24468;52.128;9.278;2022-07-29T13:29:53;100628.81;;;27.56;44.42
38718;BME280;24468;52.128;9.278;2022-07-29T13:32:20;100628.75;;;27.89;42.89
38718;BME280;24468;52.128;9.278;2022-07-29T13:34:46;100628.34;;;27.28;43.49
38718;BME280;24468;52.128;9.278;2022-07-29T13:37:11;100624.34;;;27.14;43.56
38718;BME280;24468;52.128;9.278;2022-07-29T13:39:37;100624.66;;;27.60;43.04
38718;BME280;24468;52.128;9.278;2022-07-29T13:42:04;100609.53;;;27.87;41.51
38718;BME280;24468;52.128;9.278;2022-07-29T13:44:30;100612.56;;;28.09;41.54